Time;durP1;ratioP1;P1;durP2;ratioP2;P2;SDS_P1;SDS_P2;PMS_P1;PMS_P2;Temp;Humidity;BMP_temperature;BMP_pressure;BME280_temperature;BME280_humidity;BME280_pressure;Samples;Min_cycle;Max_cycle;Signal;HPM_P1;HPM_P2
2022/10/09 00:01:52;;;;;;;12.23;7.10;;;;;;;;;;5075844;28;20558;-66
2022/10/09 00:04:19;;;;;;;13.48;7.72;;;;;;;;;;5076805;28;20556;-67
2022/10/09 00:06:46;;;;;;;9.35;7.22;;;;;;;;;;5076751;28;20571;-67
2022/10/09 00:09:15;;;;;;;13.00;7.78;;;;;;;;;;5076709;28;20315;-67
2022/10/09 00:11:43;;;;;;;10.02;7.55;;;;;;;;;;5076912;28;20614;-67
2022/10/09 00:14:10;;;;;;;12.45;7.93;;;;;;;;;;5076538;28;20672;-67
2022/10/09 00:16:37;;;;;;;7.85;6.55;;;;;;;;;;5076413;28;20648;-67
2022/10/09 00:19:04;;;;;;;7.88;7.10;;;;;;;;;;5076208;28;20659;-67
2022/10/09 00:21:32;;;;;;;10.88;7.00;;;;;;;;;;5076279;28;20676;-67
2022/10/09 00:24:00;;;;;;;10.07;7.07;;;;;;;;;;5075803;28;20229;-68
2022/10/09 00:26:29;;;;;;;13.30;7.15;;;;;;;;;;5076612;28;20247;-67
2022/10/09 00:28:56;;;;;;;8.95;7.53;;;;;;;;;;5076933;28;20194;-67
2022/10/09 00:31:24;;;;;;;9.45;7.50;;;;;;;;;;5075967;28;20194;-67
2022/10/09 00:33:51;;;;;;;14.23;7.72;;;;;;;;;;5075911;28;20202;-67
2022/10/09 00:36:19;;;;;;;12.48;7.45;;;;;;;;;;5075935;28;20206;-67
2022/10/09 00:38:46;;;;;;;10.93;6.72;;;;;;;;;;5076559;28;20551;-68
2022/10/09 00:41:15;;;;;;;14.98;8.27;;;;;;;;;;5075874;28;20659;-67
2022/10/09 00:43:45;;;;;;;11.95;8.00;;;;;;;;;;5076046;28;20204;-67
2022/10/09 00:46:19;;;;;;;16.73;8.25;;;;;;;;;;5076051;28;20216;-67
2022/10/09 00:48:57;;;;;;;9.95;7.55;;;;;;;;;;5076121;28;20191;-68
2022/10/09 00:51:24;;;;;;;8.13;7.32;;;;;;;;;;5076144;28;20182;-67
2022/10/09 00:53:51;;;;;;;20.23;9.32;;;;;;;;;;5076162;28;20201;-67
2022/10/09 00:56:19;;;;;;;16.55;7.45;;;;;;;;;;5075640;28;20224;-68
2022/10/09 00:58:52;;;;;;;17.33;9.02;;;;;;;;;;5075775;28;20197;-67
2022/10/09 01:01:24;;;;;;;14.20;7.43;;;;;;;;;;5075602;28;20189;-67
2022/10/09 01:03:51;;;;;;;15.73;8.13;;;;;;;;;;5076095;28;20292;-68
2022/10/09 01:06:20;;;;;;;12.88;8.32;;;;;;;;;;5075255;28;20217;-67
2022/10/09 01:08:50;;;;;;;16.35;8.35;;;;;;;;;;5075858;28;20200;-68
2022/10/09 01:11:21;;;;;;;7.93;7.00;;;;;;;;;;5075053;28;20204;-68
2022/10/09 01:13:52;;;;;;;7.93;7.07;;;;;;;;;;5075973;28;20191;-68
2022/10/09 01:16:22;;;;;;;15.38;8.35;;;;;;;;;;5075550;28;20190;-68
2022/10/09 01:18:51;;;;;;;13.80;7.38;;;;;;;;;;5075197;28;20202;-67
2022/10/09 01:21:20;;;;;;;15.88;7.07;;;;;;;;;;5075396;28;20196;-67
2022/10/09 01:24:04;;;;;;;14.82;10.10;;;;;;;;;;5075142;28;20229;-67
2022/10/09 01:26:49;;;;;;;13.43;7.47;;;;;;;;;;5075646;28;20273;-67
2022/10/09 01:29:19;;;;;;;13.07;6.60;;;;;;;;;;5074948;28;20205;-68
2022/10/09 01:31:48;;;;;;;10.70;7.50;;;;;;;;;;5075360;28;20665;-67
2022/10/09 01:34:16;;;;;;;13.30;7.32;;;;;;;;;;5074721;28;20203;-67
2022/10/09 01:36:44;;;;;;;8.93;7.55;;;;;;;;;;5075036;28;20647;-68
2022/10/09 01:39:14;;;;;;;9.48;7.05;;;;;;;;;;5074766;28;20200;-67
2022/10/09 01:41:42;;;;;;;10.95;7.60;;;;;;;;;;5075072;28;20213;-68
2022/10/09 01:44:16;;;;;;;12.48;7.90;;;;;;;;;;5075198;28;20200;-67
2022/10/09 01:46:44;;;;;;;12.90;7.40;;;;;;;;;;5074886;28;20210;-68
2022/10/09 01:49:16;;;;;;;7.85;7.03;;;;;;;;;;5074505;28;20207;-67
2022/10/09 01:51:48;;;;;;;9.73;6.63;;;;;;;;;;5074858;28;20295;-68
2022/10/09 01:54:16;;;;;;;14.55;7.85;;;;;;;;;;5074535;28;20185;-67
2022/10/09 01:56:44;;;;;;;12.02;7.53;;;;;;;;;;5074850;28;20208;-67
2022/10/09 01:59:12;;;;;;;8.85;7.63;;;;;;;;;;5074686;28;20196;-67
2022/10/09 02:01:41;;;;;;;8.40;7.18;;;;;;;;;;5074229;28;20197;-68
2022/10/09 02:04:11;;;;;;;12.88;7.82;;;;;;;;;;5074570;28;20606;-67
2022/10/09 02:06:40;;;;;;;7.78;6.45;;;;;;;;;;5074080;28;20228;-67
2022/10/09 02:09:09;;;;;;;9.02;6.80;;;;;;;;;;5074513;28;20227;-67
2022/10/09 02:11:36;;;;;;;11.15;7.30;;;;;;;;;;5074055;28;20198;-67
2022/10/09 02:14:04;;;;;;;13.98;8.25;;;;;;;;;;5074037;28;20207;-68
2022/10/09 02:16:36;;;;;;;11.27;7.63;;;;;;;;;;5074488;28;20200;-68
2022/10/09 02:19:04;;;;;;;11.75;7.65;;;;;;;;;;5074445;28;20267;-66
2022/10/09 02:21:38;;;;;;;9.77;7.55;;;;;;;;;;5074404;28;20202;-66
2022/10/09 02:24:07;;;;;;;13.00;7.68;;;;;;;;;;5073969;28;20232;-67
2022/10/09 02:26:34;;;;;;;21.98;8.15;;;;;;;;;;5073599;28;20197;-67
2022/10/09 02:29:01;;;;;;;9.52;7.38;;;;;;;;;;5074102;28;20297;-67
2022/10/09 02:31:29;;;;;;;8.50;7.70;;;;;;;;;;5073619;28;20203;-67
2022/10/09 02:33:57;;;;;;;8.38;7.55;;;;;;;;;;5073821;28;20685;-67
2022/10/09 02:36:24;;;;;;;9.40;7.72;;;;;;;;;;5073861;28;20197;-67
2022/10/09 02:38:55;;;;;;;10.35;7.78;;;;;;;;;;5073959;28;20204;-67
2022/10/09 02:41:22;;;;;;;9.88;7.22;;;;;;;;;;5074177;28;20209;-66
2022/10/09 02:43:49;;;;;;;12.77;8.35;;;;;;;;;;5073860;28;20201;-67
2022/10/09 02:46:17;;;;;;;7.40;6.70;;;;;;;;;;5074002;28;20204;-67
2022/10/09 02:48:44;;;;;;;17.55;8.50;;;;;;;;;;5073411;28;20231;-67
2022/10/09 02:51:12;;;;;;;13.50;8.30;;;;;;;;;;5073638;28;20194;-67
2022/10/09 02:53:39;;;;;;;11.60;8.13;;;;;;;;;;5074009;28;20209;-67
2022/10/09 02:56:08;;;;;;;13.75;8.50;;;;;;;;;;5073473;28;20194;-67
2022/10/09 02:58:35;;;;;;;13.07;8.10;;;;;;;;;;5073344;28;20206;-67
2022/10/09 03:01:03;;;;;;;12.05;9.55;;;;;;;;;;5073460;28;20208;-67
2022/10/09 03:03:31;;;;;;;10.43;8.77;;;;;;;;;;5073570;28;20198;-67
2022/10/09 03:06:01;;;;;;;13.85;8.95;;;;;;;;;;5073518;28;20193;-68
2022/10/09 03:08:28;;;;;;;11.68;8.45;;;;;;;;;;5073500;28;20223;-67
2022/10/09 03:10:56;;;;;;;13.52;7.90;;;;;;;;;;5073115;28;20193;-67
2022/10/09 03:13:24;;;;;;;14.95;8.82;;;;;;;;;;5073144;28;20203;-68
2022/10/09 03:15:51;;;;;;;13.88;9.23;;;;;;;;;;5073585;28;20547;-68
2022/10/09 03:18:19;;;;;;;10.02;8.98;;;;;;;;;;5073639;28;20557;-67
2022/10/09 03:20:46;;;;;;;10.25;8.95;;;;;;;;;;5073365;28;20203;-68
2022/10/09 03:23:13;;;;;;;15.93;8.75;;;;;;;;;;5073092;28;20200;-67
2022/10/09 03:25:40;;;;;;;14.52;8.65;;;;;;;;;;5073742;28;20233;-67
2022/10/09 03:28:07;;;;;;;11.85;8.57;;;;;;;;;;5073203;28;20242;-67
2022/10/09 03:30:36;;;;;;;11.60;8.25;;;;;;;;;;5073273;28;20196;-67
2022/10/09 03:33:03;;;;;;;12.23;9.38;;;;;;;;;;5072915;28;20195;-68
2022/10/09 03:35:30;;;;;;;15.35;8.77;;;;;;;;;;5073596;28;20200;-68
2022/10/09 03:37:57;;;;;;;16.60;9.77;;;;;;;;;;5077475;28;20200;-68
2022/10/09 03:40:25;;;;;;;15.73;9.95;;;;;;;;;;5077415;28;20204;-67
2022/10/09 03:42:52;;;;;;;13.23;9.10;;;;;;;;;;5077231;28;20234;-68
2022/10/09 03:45:19;;;;;;;17.88;10.15;;;;;;;;;;5076978;28;20197;-67
2022/10/09 03:47:47;;;;;;;11.93;8.27;;;;;;;;;;5076747;28;20217;-68
2022/10/09 03:50:15;;;;;;;10.25;8.82;;;;;;;;;;5076908;28;20205;-68
2022/10/09 03:52:42;;;;;;;11.68;8.85;;;;;;;;;;5076712;28;20222;-68
2022/10/09 03:55:10;;;;;;;10.75;9.65;;;;;;;;;;5076986;28;20192;-67
2022/10/09 03:57:37;;;;;;;11.88;9.10;;;;;;;;;;5076962;28;20211;-68
2022/10/09 04:00:04;;;;;;;13.98;8.63;;;;;;;;;;5076681;28;20192;-67
2022/10/09 04:02:32;;;;;;;16.30;10.23;;;;;;;;;;5076494;28;20196;-68
2022/10/09 04:05:01;;;;;;;13.38;9.85;;;;;;;;;;5077611;28;20228;-67
2022/10/09 04:07:28;;;;;;;12.30;9.38;;;;;;;;;;5074386;28;20727;-68
2022/10/09 04:09:55;;;;;;;13.80;9.13;;;;;;;;;;5076628;28;20560;-68
2022/10/09 04:12:23;;;;;;;17.23;10.48;;;;;;;;;;5076426;28;20338;-68
2022/10/09 04:14:50;;;;;;;12.68;10.65;;;;;;;;;;5076551;28;20233;-67
2022/10/09 04:17:17;;;;;;;17.27;10.10;;;;;;;;;;5076463;28;20197;-67
2022/10/09 04:19:44;;;;;;;17.35;11.23;;;;;;;;;;5076596;28;20199;-67
2022/10/09 04:22:13;;;;;;;14.15;10.15;;;;;;;;;;5076357;28;20199;-68
2022/10/09 04:24:40;;;;;;;16.80;10.60;;;;;;;;;;5076014;28;20230;-68
2022/10/09 04:27:07;;;;;;;14.63;10.73;;;;;;;;;;5076550;28;20192;-67
2022/10/09 04:29:34;;;;;;;19.73;11.90;;;;;;;;;;5076519;28;20219;-68
2022/10/09 04:32:01;;;;;;;11.70;10.50;;;;;;;;;;5076222;28;20196;-68
2022/10/09 04:34:29;;;;;;;17.65;11.00;;;;;;;;;;5076086;28;20387;-68
2022/10/09 04:36:56;;;;;;;16.42;11.10;;;;;;;;;;5075705;28;20203;-68
2022/10/09 04:39:24;;;;;;;17.48;10.25;;;;;;;;;;5075962;28;20237;-67
2022/10/09 04:41:52;;;;;;;14.40;10.40;;;;;;;;;;5076003;28;20203;-68
2022/10/09 04:44:19;;;;;;;19.20;10.00;;;;;;;;;;5075471;28;20202;-68
2022/10/09 04:46:46;;;;;;;13.32;9.98;;;;;;;;;;5075773;28;20194;-67
2022/10/09 04:49:14;;;;;;;12.75;9.75;;;;;;;;;;5075704;28;20224;-68
2022/10/09 04:51:41;;;;;;;16.35;10.57;;;;;;;;;;5075728;28;20677;-68
2022/10/09 04:54:09;;;;;;;15.07;10.00;;;;;;;;;;5075382;28;20287;-68
2022/10/09 04:56:38;;;;;;;13.38;11.35;;;;;;;;;;5075232;28;20197;-67
2022/10/09 04:59:06;;;;;;;20.40;10.90;;;;;;;;;;5075616;28;20204;-68
2022/10/09 05:01:33;;;;;;;15.18;10.05;;;;;;;;;;5075623;28;20196;-68
2022/10/09 05:04:00;;;;;;;22.17;13.30;;;;;;;;;;5075589;28;20196;-68
2022/10/09 05:06:28;;;;;;;17.80;11.18;;;;;;;;;;5075052;28;20192;-68
2022/10/09 05:08:55;;;;;;;13.93;10.93;;;;;;;;;;5075099;28;20221;-68
2022/10/09 05:11:23;;;;;;;15.63;11.30;;;;;;;;;;5075131;28;20720;-67
2022/10/09 05:13:52;;;;;;;26.98;12.93;;;;;;;;;;5074997;28;20206;-67
2022/10/09 05:16:20;;;;;;;17.05;10.77;;;;;;;;;;5075251;28;20195;-68
2022/10/09 05:18:48;;;;;;;11.68;10.15;;;;;;;;;;5075364;28;20211;-68
2022/10/09 05:21:16;;;;;;;14.93;10.45;;;;;;;;;;5075454;28;20207;-67
2022/10/09 05:23:43;;;;;;;13.35;10.43;;;;;;;;;;5074530;28;20230;-68
2022/10/09 05:26:12;;;;;;;13.23;10.77;;;;;;;;;;5075459;28;20199;-68
2022/10/09 05:28:47;;;;;;;14.98;10.30;;;;;;;;;;5074977;28;20217;-68
2022/10/09 05:31:18;;;;;;;14.82;9.13;;;;;;;;;;5075195;28;20192;-67
2022/10/09 05:33:46;;;;;;;13.23;9.20;;;;;;;;;;5074664;28;20190;-68
2022/10/09 05:36:13;;;;;;;14.63;10.05;;;;;;;;;;5074893;28;20297;-67
2022/10/09 05:38:40;;;;;;;14.15;9.80;;;;;;;;;;5074975;28;20197;-68
2022/10/09 05:41:08;;;;;;;10.27;8.65;;;;;;;;;;5074736;28;20201;-67
2022/10/09 05:43:37;;;;;;;18.60;10.23;;;;;;;;;;5074965;28;20194;-67
2022/10/09 05:46:08;;;;;;;13.77;9.77;;;;;;;;;;5074465;28;20200;-67
2022/10/09 05:48:36;;;;;;;15.68;10.15;;;;;;;;;;5074162;28;20214;-67
2022/10/09 05:51:07;;;;;;;15.18;9.70;;;;;;;;;;5074552;28;20196;-68
2022/10/09 05:53:34;;;;;;;15.18;10.88;;;;;;;;;;5074480;28;20210;-68
2022/10/09 05:56:10;;;;;;;11.88;10.02;;;;;;;;;;5074536;28;20199;-67
2022/10/09 05:58:37;;;;;;;16.17;10.18;;;;;;;;;;5073126;28;20188;-67
2022/10/09 06:01:04;;;;;;;11.77;10.57;;;;;;;;;;5074342;28;20620;-67
2022/10/09 06:03:31;;;;;;;11.98;9.77;;;;;;;;;;5074450;28;20206;-67
2022/10/09 06:06:01;;;;;;;13.75;10.35;;;;;;;;;;5074442;28;20209;-67
2022/10/09 06:08:28;;;;;;;17.67;11.38;;;;;;;;;;5073931;28;20211;-67
2022/10/09 06:10:55;;;;;;;11.50;10.13;;;;;;;;;;5074272;28;20195;-68
2022/10/09 06:13:23;;;;;;;11.52;10.18;;;;;;;;;;5073953;28;20553;-67
2022/10/09 06:15:53;;;;;;;13.95;11.55;;;;;;;;;;5073674;28;20597;-67
2022/10/09 06:18:20;;;;;;;13.60;9.98;;;;;;;;;;5074504;28;20203;-68
2022/10/09 06:20:54;;;;;;;12.80;11.50;;;;;;;;;;5074116;28;20198;-67
2022/10/09 06:23:22;;;;;;;15.02;11.95;;;;;;;;;;5073547;28;20189;-67
2022/10/09 06:25:53;;;;;;;15.50;10.23;;;;;;;;;;5073841;28;20643;-67
2022/10/09 06:28:21;;;;;;;14.57;10.15;;;;;;;;;;5074252;28;20211;-68
2022/10/09 06:30:48;;;;;;;14.73;9.93;;;;;;;;;;5073850;28;20215;-67
2022/10/09 06:33:15;;;;;;;14.63;10.57;;;;;;;;;;5073771;28;20192;-68
2022/10/09 06:35:43;;;;;;;11.80;10.63;;;;;;;;;;5073464;28;20195;-67
2022/10/09 06:38:10;;;;;;;15.88;11.82;;;;;;;;;;5073379;28;20211;-68
2022/10/09 06:40:38;;;;;;;14.35;11.70;;;;;;;;;;5073273;28;20216;-67
2022/10/09 06:43:06;;;;;;;19.80;12.50;;;;;;;;;;5073438;28;20201;-68
2022/10/09 06:45:36;;;;;;;11.13;9.57;;;;;;;;;;5073543;28;20553;-68
2022/10/09 06:48:04;;;;;;;15.45;13.10;;;;;;;;;;5073731;28;20191;-67
2022/10/09 06:50:31;;;;;;;13.63;11.38;;;;;;;;;;5073462;28;20198;-68
2022/10/09 06:52:58;;;;;;;14.75;11.32;;;;;;;;;;5073283;28;20192;-68
2022/10/09 06:55:25;;;;;;;13.98;11.23;;;;;;;;;;5073039;28;20197;-68
2022/10/09 06:57:53;;;;;;;20.25;12.38;;;;;;;;;;5073266;28;20207;-67
2022/10/09 07:00:21;;;;;;;14.10;10.65;;;;;;;;;;5073068;28;20650;-67
2022/10/09 07:02:48;;;;;;;12.27;10.95;;;;;;;;;;5073473;28;20197;-68
2022/10/09 07:05:15;;;;;;;13.10;10.80;;;;;;;;;;5073303;28;20226;-68
2022/10/09 07:07:43;;;;;;;14.88;12.63;;;;;;;;;;5073072;28;20199;-67
2022/10/09 07:10:10;;;;;;;13.32;10.57;;;;;;;;;;5073026;28;20568;-68
2022/10/09 07:12:38;;;;;;;20.05;12.45;;;;;;;;;;5073282;28;20646;-67
2022/10/09 07:15:07;;;;;;;11.98;10.85;;;;;;;;;;5073208;28;20202;-68
2022/10/09 07:17:34;;;;;;;16.85;12.15;;;;;;;;;;5073351;28;20215;-67
2022/10/09 07:20:01;;;;;;;13.23;11.50;;;;;;;;;;5073299;28;20196;-67
2022/10/09 07:22:29;;;;;;;16.80;10.38;;;;;;;;;;5073136;28;20199;-67
2022/10/09 07:24:56;;;;;;;13.68;10.65;;;;;;;;;;5073335;28;20224;-67
2022/10/09 07:27:23;;;;;;;14.30;11.98;;;;;;;;;;5073440;28;20209;-66
2022/10/09 07:29:50;;;;;;;23.27;11.45;;;;;;;;;;5073029;28;20217;-68
2022/10/09 07:32:19;;;;;;;12.07;10.40;;;;;;;;;;5073480;28;20558;-68
2022/10/09 07:34:46;;;;;;;14.50;10.43;;;;;;;;;;5073401;28;20286;-68
2022/10/09 07:37:13;;;;;;;16.25;11.18;;;;;;;;;;5072755;28;20194;-67
2022/10/09 07:39:40;;;;;;;15.85;11.23;;;;;;;;;;5072556;28;20611;-68
2022/10/09 07:42:07;;;;;;;13.25;10.43;;;;;;;;;;5073473;28;20661;-68
2022/10/09 07:44:35;;;;;;;14.00;11.10;;;;;;;;;;5071218;28;20197;-68
2022/10/09 07:47:02;;;;;;;19.55;11.75;;;;;;;;;;5073073;28;20196;-68
2022/10/09 07:49:34;;;;;;;13.63;10.48;;;;;;;;;;5072883;28;20220;-68
2022/10/09 07:52:01;;;;;;;12.05;10.82;;;;;;;;;;5073116;28;20188;-68
2022/10/09 07:54:28;;;;;;;13.63;9.68;;;;;;;;;;5072494;28;20193;-68
2022/10/09 07:56:55;;;;;;;11.52;10.40;;;;;;;;;;5072752;28;20204;-68
2022/10/09 07:59:22;;;;;;;12.90;10.02;;;;;;;;;;5072804;28;20198;-68
2022/10/09 08:01:50;;;;;;;17.67;10.55;;;;;;;;;;5073084;28;20287;-68
2022/10/09 08:04:17;;;;;;;11.43;10.32;;;;;;;;;;5072454;28;20203;-68
2022/10/09 08:06:45;;;;;;;16.98;10.27;;;;;;;;;;5072778;28;20193;-68
2022/10/09 08:09:12;;;;;;;13.23;9.88;;;;;;;;;;5073017;28;20226;-68
2022/10/09 08:11:40;;;;;;;13.20;10.65;;;;;;;;;;5072441;28;20662;-68
2022/10/09 08:14:08;;;;;;;16.63;10.15;;;;;;;;;;5072317;28;20202;-68
2022/10/09 08:16:35;;;;;;;12.55;8.98;;;;;;;;;;5072643;28;20197;-68
2022/10/09 08:19:02;;;;;;;14.70;9.75;;;;;;;;;;5072453;28;20200;-67
2022/10/09 08:21:31;;;;;;;10.15;9.15;;;;;;;;;;5072923;28;20216;-68
2022/10/09 08:24:00;;;;;;;14.35;10.70;;;;;;;;;;5076040;28;20240;-67
2022/10/09 08:26:28;;;;;;;9.77;8.75;;;;;;;;;;5075745;28;20212;-68
2022/10/09 08:28:56;;;;;;;10.68;9.48;;;;;;;;;;5076171;28;20221;-68
2022/10/09 08:31:23;;;;;;;11.35;10.00;;;;;;;;;;5076112;28;20383;-68
2022/10/09 08:33:53;;;;;;;11.10;7.78;;;;;;;;;;5076157;28;20196;-67
2022/10/09 08:36:20;;;;;;;13.68;8.63;;;;;;;;;;5075843;28;20253;-68
2022/10/09 08:38:47;;;;;;;12.98;8.25;;;;;;;;;;5076095;28;20205;-67
2022/10/09 08:41:20;;;;;;;11.82;7.55;;;;;;;;;;5075774;28;20643;-67
2022/10/09 08:43:48;;;;;;;7.22;6.60;;;;;;;;;;5076230;28;20189;-68
2022/10/09 08:46:19;;;;;;;10.38;7.82;;;;;;;;;;5075385;28;20198;-67
2022/10/09 08:48:47;;;;;;;11.05;8.00;;;;;;;;;;5076349;28;20186;-67
2022/10/09 08:51:19;;;;;;;12.48;8.20;;;;;;;;;;5075836;28;20196;-68
2022/10/09 08:53:48;;;;;;;8.52;7.22;;;;;;;;;;5076250;28;20196;-68
2022/10/09 08:56:16;;;;;;;11.75;8.63;;;;;;;;;;5075298;28;20198;-67
2022/10/09 08:58:45;;;;;;;10.32;7.22;;;;;;;;;;5075727;28;20654;-67
2022/10/09 09:01:17;;;;;;;11.32;7.70;;;;;;;;;;5075867;28;20197;-67
2022/10/09 09:03:54;;;;;;;9.73;7.13;;;;;;;;;;5075929;28;20281;-67
2022/10/09 09:06:25;;;;;;;14.77;7.07;;;;;;;;;;5075601;28;20190;-67
2022/10/09 09:08:55;;;;;;;9.23;7.47;;;;;;;;;;5075898;28;20210;-67
2022/10/09 09:11:29;;;;;;;8.75;7.03;;;;;;;;;;5075334;28;20196;-67
2022/10/09 09:14:01;;;;;;;23.42;16.23;;;;;;;;;;5075722;28;20188;-67
2022/10/09 09:16:31;;;;;;;9.43;7.03;;;;;;;;;;5055482;28;20183;-67
2022/10/09 09:19:04;;;;;;;9.55;6.70;;;;;;;;;;5055713;28;20189;-67
2022/10/09 09:21:36;;;;;;;9.57;7.20;;;;;;;;;;5055452;28;20278;-67
2022/10/09 09:24:05;;;;;;;13.23;7.65;;;;;;;;;;5055872;28;20231;-67
2022/10/09 09:26:33;;;;;;;8.73;6.45;;;;;;;;;;5055614;28;20199;-67
2022/10/09 09:29:03;;;;;;;6.90;6.10;;;;;;;;;;5054955;28;20199;-67
2022/10/09 09:31:35;;;;;;;11.40;6.47;;;;;;;;;;5055327;28;20198;-67
2022/10/09 09:34:03;;;;;;;9.13;6.03;;;;;;;;;;5054880;28;20426;-67
2022/10/09 09:36:34;;;;;;;6.47;5.87;;;;;;;;;;5054801;28;20376;-67
2022/10/09 09:39:01;;;;;;;7.07;5.60;;;;;;;;;;5055299;28;20784;-67
2022/10/09 09:41:28;;;;;;;12.30;6.05;;;;;;;;;;5055098;28;20797;-67
2022/10/09 09:43:56;;;;;;;7.40;6.00;;;;;;;;;;5055264;28;20210;-67
2022/10/09 09:46:24;;;;;;;13.80;10.33;;;;;;;;;;5054679;28;20209;-67
2022/10/09 09:48:52;;;;;;;12.80;8.10;;;;;;;;;;5055421;28;20445;-67
2022/10/09 09:51:20;;;;;;;6.10;5.60;;;;;;;;;;5055407;28;20244;-68
2022/10/09 09:53:49;;;;;;;9.97;5.97;;;;;;;;;;5055175;28;20528;-67
2022/10/09 09:56:17;;;;;;;7.57;5.57;;;;;;;;;;5054830;28;20460;-67
2022/10/09 09:58:47;;;;;;;7.03;5.47;;;;;;;;;;5055053;28;20452;-66
2022/10/09 10:01:23;;;;;;;6.85;5.10;;;;;;;;;;5054913;28;20449;-67
2022/10/09 10:03:52;;;;;;;10.90;5.10;;;;;;;;;;5054473;28;20197;-68
2022/10/09 10:06:23;;;;;;;5.97;5.20;;;;;;;;;;5058601;28;20793;-68
2022/10/09 10:08:58;;;;;;;8.10;5.13;;;;;;;;;;5074755;28;20528;-67
2022/10/09 10:11:25;;;;;;;10.13;4.93;;;;;;;;;;5074404;28;20433;-67
2022/10/09 10:13:52;;;;;;;7.53;5.33;;;;;;;;;;5074294;28;20444;-67
2022/10/09 10:16:24;;;;;;;6.80;5.03;;;;;;;;;;5073848;28;20972;-67
2022/10/09 10:18:52;;;;;;;8.43;5.33;;;;;;;;;;5074313;28;20464;-67
2022/10/09 10:21:20;;;;;;;10.23;5.63;;;;;;;;;;5074413;28;20440;-67
2022/10/09 10:23:51;;;;;;;4.70;4.30;;;;;;;;;;5073911;28;20786;-68
2022/10/09 10:26:22;;;;;;;10.03;4.73;;;;;;;;;;5074115;28;20925;-67
2022/10/09 10:28:50;;;;;;;6.37;4.40;;;;;;;;;;5074251;28;20790;-67
2022/10/09 10:31:20;;;;;;;7.17;5.27;;;;;;;;;;5074126;28;20567;-67
2022/10/09 10:33:53;;;;;;;8.00;4.23;;;;;;;;;;5073858;28;20843;-67
2022/10/09 10:36:20;;;;;;;7.77;4.40;;;;;;;;;;5073526;28;20931;-67
2022/10/09 10:38:51;;;;;;;6.40;4.13;;;;;;;;;;5074097;28;20800;-67
2022/10/09 10:41:22;;;;;;;9.20;5.00;;;;;;;;;;5073887;28;20438;-68
2022/10/09 10:43:51;;;;;;;6.77;3.70;;;;;;;;;;5073691;28;20439;-67
2022/10/09 10:46:23;;;;;;;11.10;4.43;;;;;;;;;;5072945;28;20444;-68
2022/10/09 10:48:52;;;;;;;6.57;4.40;;;;;;;;;;5073718;28;20441;-67
2022/10/09 10:51:30;;;;;;;7.17;5.10;;;;;;;;;;5073240;28;20487;-67
2022/10/09 10:54:03;;;;;;;5.57;3.50;;;;;;;;;;5073518;28;20437;-68
2022/10/09 10:56:38;;;;;;;5.20;4.30;;;;;;;;;;5073228;28;20488;-68
2022/10/09 10:59:14;;;;;;;15.10;10.57;;;;;;;;;;5073725;28;20505;-67
2022/10/09 11:01:44;;;;;;;10.87;4.13;;;;;;;;;;5073706;28;20436;-67
2022/10/09 11:04:27;;;;;;;4.07;3.47;;;;;;;;;;5073506;28;20440;-67
2022/10/09 11:07:00;;;;;;;7.27;6.30;;;;;;;;;;5073349;28;20925;-68
2022/10/09 11:09:31;;;;;;;7.80;4.87;;;;;;;;;;5073083;28;20430;-67
2022/10/09 11:12:03;;;;;;;5.60;3.20;;;;;;;;;;5073400;28;20515;-68
2022/10/09 11:14:37;;;;;;;4.60;4.20;;;;;;;;;;5073561;28;20439;-68
2022/10/09 11:17:12;;;;;;;8.17;4.17;;;;;;;;;;5073053;28;20429;-67
2022/10/09 11:19:46;;;;;;;7.37;4.27;;;;;;;;;;5073483;28;20432;-67
2022/10/09 11:22:21;;;;;;;3.60;3.30;;;;;;;;;;5073282;28;20437;-67
2022/10/09 11:24:55;;;;;;;7.97;3.60;;;;;;;;;;5073098;28;20484;-67
2022/10/09 11:27:24;;;;;;;10.27;4.50;;;;;;;;;;5073456;28;20522;-67
2022/10/09 11:29:53;;;;;;;5.37;3.60;;;;;;;;;;5072898;28;20479;-68
2022/10/09 11:32:23;;;;;;;5.43;3.07;;;;;;;;;;5073295;28;20452;-68
2022/10/09 11:34:55;;;;;;;3.93;3.20;;;;;;;;;;5073115;28;20441;-68
2022/10/09 11:37:26;;;;;;;7.63;3.13;;;;;;;;;;5072793;28;20538;-68
2022/10/09 11:39:53;;;;;;;8.03;3.47;;;;;;;;;;5073241;28;20430;-67
2022/10/09 11:42:22;;;;;;;12.50;3.70;;;;;;;;;;5073151;28;20439;-68
2022/10/09 11:44:54;;;;;;;5.00;3.33;;;;;;;;;;5073443;28;20446;-68
2022/10/09 11:47:24;;;;;;;6.90;4.40;;;;;;;;;;5072846;28;20438;-67
2022/10/09 11:50:00;;;;;;;7.00;3.00;;;;;;;;;;5073091;28;20561;-67
2022/10/09 11:52:30;;;;;;;8.10;3.17;;;;;;;;;;5072745;28;20789;-68
2022/10/09 11:55:07;;;;;;;5.97;3.10;;;;;;;;;;5072973;28;20937;-67
2022/10/09 11:57:35;;;;;;;9.00;5.07;;;;;;;;;;5075100;28;20432;-68
2022/10/09 12:00:06;;;;;;;5.00;2.80;;;;;;;;;;5076830;28;20473;-67
2022/10/09 12:02:33;;;;;;;4.80;2.53;;;;;;;;;;5076556;28;20496;-67
2022/10/09 12:05:02;;;;;;;3.50;2.60;;;;;;;;;;5076684;28;20445;-66
2022/10/09 12:07:31;;;;;;;5.90;2.90;;;;;;;;;;5076580;28;20509;-67
2022/10/09 12:10:01;;;;;;;5.43;3.10;;;;;;;;;;5076028;28;20978;-67
2022/10/09 12:12:28;;;;;;;5.67;2.90;;;;;;;;;;5077045;28;20933;-67
2022/10/09 12:14:56;;;;;;;8.37;3.40;;;;;;;;;;5076143;28;20841;-67
2022/10/09 12:17:34;;;;;;;4.60;3.03;;;;;;;;;;5076186;28;20446;-67
2022/10/09 12:20:06;;;;;;;3.80;2.60;;;;;;;;;;5076363;28;20445;-68
2022/10/09 12:22:35;;;;;;;7.70;2.77;;;;;;;;;;5076208;28;20429;-67
2022/10/09 12:25:06;;;;;;;4.50;2.60;;;;;;;;;;5076086;28;20877;-67
2022/10/09 12:27:35;;;;;;;5.13;3.13;;;;;;;;;;5076531;28;20508;-67
2022/10/09 12:30:05;;;;;;;5.43;3.30;;;;;;;;;;5076139;28;20548;-67
2022/10/09 12:32:36;;;;;;;4.17;2.50;;;;;;;;;;5076224;28;20787;-67
2022/10/09 12:35:11;;;;;;;4.10;2.67;;;;;;;;;;5075892;28;20431;-67
2022/10/09 12:37:38;;;;;;;5.17;2.10;;;;;;;;;;5076233;28;20537;-67
2022/10/09 12:40:10;;;;;;;5.27;2.50;;;;;;;;;;5075866;28;20450;-67
2022/10/09 12:42:37;;;;;;;3.00;2.23;;;;;;;;;;5076017;28;20450;-67
2022/10/09 12:45:04;;;;;;;6.57;3.00;;;;;;;;;;5075653;28;20439;-67
2022/10/09 12:47:35;;;;;;;6.57;2.53;;;;;;;;;;5075933;28;20443;-67
2022/10/09 12:50:03;;;;;;;4.13;2.67;;;;;;;;;;5075783;28;20527;-68
2022/10/09 12:52:32;;;;;;;4.40;2.80;;;;;;;;;;5075639;28;20947;-66
2022/10/09 12:55:02;;;;;;;4.47;2.73;;;;;;;;;;5075338;28;20447;-66
2022/10/09 12:57:29;;;;;;;9.23;7.00;;;;;;;;;;5075848;28;20846;-66
2022/10/09 12:59:57;;;;;;;6.73;2.97;;;;;;;;;;5075357;28;20446;-69
2022/10/09 13:02:24;;;;;;;3.10;2.40;;;;;;;;;;5075975;28;20442;-67
2022/10/09 13:04:59;;;;;;;6.83;3.43;;;;;;;;;;5075777;28;20445;-66
2022/10/09 13:07:27;;;;;;;7.70;2.10;;;;;;;;;;5075590;28;20864;-66
2022/10/09 13:10:00;;;;;;;3.87;2.50;;;;;;;;;;5075251;28;20532;-66
2022/10/09 13:12:28;;;;;;;5.33;2.83;;;;;;;;;;5075600;28;20446;-66
2022/10/09 13:14:57;;;;;;;5.47;2.50;;;;;;;;;;5074149;28;20474;-66
2022/10/09 13:17:25;;;;;;;5.43;2.43;;;;;;;;;;5075098;28;20448;-66
2022/10/09 13:19:53;;;;;;;5.43;2.33;;;;;;;;;;5074980;28;20448;-66
2022/10/09 13:22:21;;;;;;;13.37;8.80;;;;;;;;;;5075451;28;20447;-66
2022/10/09 13:24:51;;;;;;;7.47;2.63;;;;;;;;;;5074949;28;20884;-67
2022/10/09 13:27:20;;;;;;;8.13;3.17;;;;;;;;;;5074864;28;20449;-66
2022/10/09 13:29:48;;;;;;;10.83;4.00;;;;;;;;;;5075074;28;20469;-67
2022/10/09 13:32:15;;;;;;;4.33;2.40;;;;;;;;;;5074939;28;20984;-67
2022/10/09 13:34:42;;;;;;;6.20;2.67;;;;;;;;;;5074549;28;20942;-66
2022/10/09 13:37:11;;;;;;;6.43;2.67;;;;;;;;;;5075265;28;20437;-67
2022/10/09 13:39:38;;;;;;;8.20;2.30;;;;;;;;;;5075001;28;20544;-66
2022/10/09 13:42:05;;;;;;;9.73;2.23;;;;;;;;;;5074830;28;20549;-66
2022/10/09 13:44:34;;;;;;;9.90;2.60;;;;;;;;;;5074678;28;20452;-67
2022/10/09 13:47:02;;;;;;;5.43;2.13;;;;;;;;;;5074517;28;20446;-66
2022/10/09 13:49:29;;;;;;;3.50;2.20;;;;;;;;;;5074415;28;20449;-66
2022/10/09 13:51:56;;;;;;;5.87;2.03;;;;;;;;;;5074950;28;20497;-66
2022/10/09 13:54:23;;;;;;;2.70;2.30;;;;;;;;;;5074260;28;20474;-67
2022/10/09 13:56:50;;;;;;;2.97;1.90;;;;;;;;;;5074518;28;20452;-67
2022/10/09 13:59:17;;;;;;;3.00;2.07;;;;;;;;;;5074453;28;20447;-67
2022/10/09 14:01:46;;;;;;;6.90;2.10;;;;;;;;;;5074462;28;20447;-66
2022/10/09 14:04:13;;;;;;;4.03;2.20;;;;;;;;;;5074521;28;20518;-67
2022/10/09 14:06:40;;;;;;;7.37;2.73;;;;;;;;;;5075008;28;20440;-67
2022/10/09 14:09:08;;;;;;;5.53;2.90;;;;;;;;;;5074467;28;20488;-67
2022/10/09 14:11:35;;;;;;;2.93;2.33;;;;;;;;;;5074318;28;20478;-66
2022/10/09 14:14:03;;;;;;;5.90;2.20;;;;;;;;;;5074516;28;20452;-67
2022/10/09 14:16:31;;;;;;;7.80;2.80;;;;;;;;;;5073916;28;20450;-67
2022/10/09 14:19:00;;;;;;;4.70;2.07;;;;;;;;;;5073629;28;20952;-66
2022/10/09 14:21:28;;;;;;;3.60;2.47;;;;;;;;;;5073936;28;20439;-67
2022/10/09 14:23:56;;;;;;;5.20;2.40;;;;;;;;;;5074420;28;20477;-66
2022/10/09 14:26:24;;;;;;;5.87;2.20;;;;;;;;;;5074398;28;20450;-66
2022/10/09 14:28:52;;;;;;;9.70;3.17;;;;;;;;;;5074535;28;20454;-66
2022/10/09 14:31:19;;;;;;;5.63;2.70;;;;;;;;;;5073711;28;20986;-67
2022/10/09 14:33:47;;;;;;;7.73;2.50;;;;;;;;;;5074151;28;20441;-67
2022/10/09 14:36:18;;;;;;;5.90;1.90;;;;;;;;;;5073867;28;20441;-67
2022/10/09 14:38:45;;;;;;;8.07;2.53;;;;;;;;;;5073954;28;20497;-67
2022/10/09 14:41:13;;;;;;;7.90;2.63;;;;;;;;;;5073703;28;20460;-66